createdAt,value
2023-04-13T00:00:08.792Z,10.70
2023-04-13T00:02:39.120Z,10.54
2023-04-13T00:05:10.741Z,10.45
2023-04-13T00:07:38.657Z,10.49
2023-04-13T00:10:08.722Z,10.37
2023-04-13T00:12:38.785Z,10.41
2023-04-13T00:15:05.815Z,10.35
2023-04-13T00:17:35.977Z,10.32
2023-04-13T00:20:08.268Z,10.22
2023-04-13T00:22:34.748Z,10.28
2023-04-13T00:25:01.301Z,10.17
2023-04-13T00:27:27.809Z,10.15
2023-04-13T00:29:56.297Z,10.12
2023-04-13T00:32:23.061Z,10.13
2023-04-13T00:34:49.575Z,9.98
2023-04-13T00:37:16.020Z,9.96
2023-04-13T00:39:43.385Z,9.93
2023-04-13T00:42:11.029Z,9.98
2023-04-13T00:44:37.745Z,9.82
2023-04-13T00:47:06.415Z,9.86
2023-04-13T00:49:35.674Z,9.78
2023-04-13T00:52:02.929Z,9.71
2023-04-13T00:54:29.935Z,9.79
2023-04-13T00:56:59.388Z,9.71
2023-04-13T00:59:27.843Z,9.68
2023-04-13T01:01:57.547Z,9.67
2023-04-13T01:04:25.609Z,9.68
2023-04-13T01:07:06.923Z,9.48
2023-04-13T01:09:42.435Z,9.52
2023-04-13T01:12:34.356Z,9.50
2023-04-13T01:15:09.490Z,9.35
2023-04-13T01:17:39.066Z,9.52
2023-04-13T01:20:15.700Z,9.35
2023-04-13T01:22:49.209Z,9.36
2023-04-13T01:25:44.800Z,9.34
2023-04-13T01:28:15.890Z,9.32
2023-04-13T01:30:44.635Z,9.29
2023-04-13T01:33:12.497Z,9.24
2023-04-13T01:35:39.973Z,9.16
2023-04-13T01:38:08.759Z,9.16
2023-04-13T01:40:40.481Z,9.10
2023-04-13T01:43:08.473Z,9.03
2023-04-13T01:46:04.878Z,9.00
2023-04-13T01:48:51.612Z,8.94
2023-04-13T01:51:31.314Z,8.90
2023-04-13T01:54:11.107Z,8.91
2023-04-13T01:56:41.563Z,8.60
2023-04-13T01:59:09.399Z,8.72
2023-04-13T02:01:41.039Z,8.68
2023-04-13T02:04:07.772Z,8.73
2023-04-13T02:06:34.472Z,8.81
2023-04-13T02:09:06.673Z,8.83
2023-04-13T02:11:34.578Z,8.76
2023-04-13T02:14:03.976Z,8.78
2023-04-13T02:16:31.170Z,8.77
2023-04-13T02:18:58.369Z,8.82
2023-04-13T02:21:25.793Z,8.79
2023-04-13T02:23:52.571Z,8.64
2023-04-13T02:26:19.810Z,8.72
2023-04-13T02:28:47.328Z,8.66
2023-04-13T02:31:16.756Z,8.62
2023-04-13T02:33:44.726Z,8.59
2023-04-13T02:36:11.705Z,8.64
2023-04-13T02:38:46.004Z,8.53
2023-04-13T02:41:23.119Z,8.45
2023-04-13T02:43:50.776Z,8.48
2023-04-13T02:46:18.647Z,8.35
2023-04-13T02:48:45.406Z,8.39
2023-04-13T02:51:12.320Z,8.32
2023-04-13T02:53:41.230Z,8.32
2023-04-13T02:56:09.526Z,8.26
2023-04-13T02:58:36.817Z,8.26
2023-04-13T03:01:07.818Z,8.19
2023-04-13T03:03:34.955Z,8.26
2023-04-13T03:06:01.735Z,8.17
2023-04-13T03:08:46.237Z,8.13
2023-04-13T03:11:18.608Z,8.30
2023-04-13T03:13:54.008Z,8.21
2023-04-13T03:16:20.985Z,8.25
2023-04-13T03:18:47.808Z,8.22
2023-04-13T03:21:14.698Z,8.24
2023-04-13T03:23:49.668Z,8.28
2023-04-13T03:26:17.434Z,8.21
2023-04-13T03:28:43.837Z,8.15
2023-04-13T03:31:10.522Z,8.22
2023-04-13T03:33:38.112Z,8.16
2023-04-13T03:36:07.345Z,8.21
2023-04-13T03:38:36.470Z,8.10
2023-04-13T03:41:03.340Z,8.15
2023-04-13T03:43:31.632Z,7.95
2023-04-13T03:46:03.257Z,8.07
2023-04-13T03:48:30.869Z,8.03
2023-04-13T03:50:58.695Z,7.98
2023-04-13T03:53:31.559Z,7.99
2023-04-13T03:55:58.408Z,7.82
2023-04-13T03:58:24.840Z,7.82
2023-04-13T04:00:51.600Z,7.97
2023-04-13T04:03:30.481Z,8.03
2023-04-13T04:06:01.930Z,8.04
2023-04-13T04:08:29.453Z,8.00
2023-04-13T04:11:00.071Z,7.97
2023-04-13T04:13:28.450Z,7.86
2023-04-13T04:15:58.117Z,7.88
2023-04-13T04:18:24.732Z,7.88
2023-04-13T04:20:51.925Z,7.97
2023-04-13T04:23:19.896Z,8.03
2023-04-13T04:25:55.167Z,8.03
2023-04-13T04:28:22.065Z,8.01
2023-04-13T04:30:54.349Z,7.96
2023-04-13T04:33:24.728Z,8.00
2023-04-13T04:35:52.394Z,7.97
2023-04-13T04:38:23.607Z,7.86
2023-04-13T04:40:51.300Z,7.93
2023-04-13T04:43:17.728Z,7.96
2023-04-13T04:45:52.218Z,7.98
2023-04-13T04:48:20.219Z,7.82
2023-04-13T04:50:48.932Z,7.86
2023-04-13T04:53:16.571Z,7.89
2023-04-13T04:55:44.568Z,7.94
2023-04-13T04:58:19.615Z,7.79
2023-04-13T05:00:49.876Z,7.86
2023-04-13T05:03:17.349Z,7.74
2023-04-13T05:05:49.330Z,7.80
2023-04-13T05:08:22.063Z,7.92
2023-04-13T05:10:52.880Z,7.90
2023-04-13T05:13:19.538Z,7.83
2023-04-13T05:15:56.074Z,7.79
2023-04-13T05:18:22.569Z,7.81
2023-04-13T05:20:49.142Z,7.88
2023-04-13T05:23:15.586Z,7.86
2023-04-13T05:25:49.661Z,7.87
2023-04-13T05:28:21.792Z,7.89
2023-04-13T05:30:48.287Z,7.97
2023-04-13T05:33:17.026Z,7.96
2023-04-13T05:35:44.549Z,7.99
2023-04-13T05:38:11.754Z,7.89
2023-04-13T05:40:38.251Z,8.00
2023-04-13T05:43:04.939Z,8.05
2023-04-13T05:45:35.549Z,8.04
2023-04-13T05:48:12.447Z,8.06
2023-04-13T05:50:41.209Z,8.06
2023-04-13T05:53:08.929Z,8.02
2023-04-13T05:55:47.423Z,8.04
2023-04-13T05:58:14.999Z,8.06
2023-04-13T06:00:41.423Z,8.10
2023-04-13T06:03:13.048Z,8.07
2023-04-13T06:05:39.715Z,8.10
2023-04-13T06:08:06.125Z,8.10
2023-04-13T06:10:32.550Z,8.14
2023-04-13T06:12:59.329Z,8.13
2023-04-13T06:15:26.126Z,8.08
2023-04-13T06:17:53.625Z,8.16
2023-04-13T06:20:23.372Z,8.23
2023-04-13T06:22:49.794Z,8.25
2023-04-13T06:25:19.542Z,8.32
2023-04-13T06:27:49.730Z,8.35
2023-04-13T06:30:16.794Z,8.30
2023-04-13T06:32:43.941Z,8.29
2023-04-13T06:35:14.623Z,8.33
2023-04-13T06:37:45.309Z,8.33
2023-04-13T06:40:16.932Z,8.41
2023-04-13T06:42:54.372Z,8.49
2023-04-13T06:45:46.739Z,8.52
2023-04-13T06:48:19.487Z,8.56
2023-04-13T06:50:48.349Z,8.58
2023-04-13T06:53:14.779Z,8.69
2023-04-13T06:55:41.613Z,8.74
2023-04-13T06:58:08.943Z,8.68
2023-04-13T07:00:35.541Z,8.78
2023-04-13T07:03:02.280Z,8.75
2023-04-13T07:05:29.877Z,8.72
2023-04-13T07:08:02.997Z,8.86
2023-04-13T07:10:29.770Z,8.95
2023-04-13T07:12:59.828Z,8.91
2023-04-13T07:15:28.957Z,8.98
2023-04-13T07:17:55.969Z,8.99
2023-04-13T07:20:22.446Z,9.06
2023-04-13T07:22:48.857Z,8.98
2023-04-13T07:25:15.736Z,8.99
2023-04-13T07:27:42.206Z,9.10
2023-04-13T07:30:08.936Z,9.20
2023-04-13T07:32:40.867Z,9.28
2023-04-13T07:35:08.619Z,9.36
2023-04-13T07:37:37.023Z,9.37
2023-04-13T07:40:04.434Z,9.46
2023-04-13T07:42:32.710Z,9.48
2023-04-13T07:44:59.124Z,9.47
2023-04-13T07:47:27.571Z,9.40
2023-04-13T07:49:59.234Z,9.64
2023-04-13T07:52:26.379Z,9.69
2023-04-13T07:54:53.753Z,9.74
2023-04-13T07:57:22.327Z,9.70
2023-04-13T07:59:55.600Z,9.89
2023-04-13T08:02:23.315Z,10.05
2023-04-13T08:04:53.034Z,10.12
2023-04-13T08:07:24.153Z,9.97
2023-04-13T08:09:52.429Z,10.10
2023-04-13T08:12:19.331Z,10.36
2023-04-13T08:14:47.229Z,10.35
2023-04-13T08:17:13.821Z,10.50
2023-04-13T08:19:41.062Z,10.67
2023-04-13T08:22:11.589Z,10.63
2023-04-13T08:24:38.067Z,10.58
2023-04-13T08:27:07.291Z,10.72
2023-04-13T08:29:34.091Z,10.70
2023-04-13T08:32:01.062Z,10.70
2023-04-13T08:34:29.314Z,10.55
2023-04-13T08:36:55.813Z,10.75
2023-04-13T08:39:25.065Z,10.58
2023-04-13T08:41:51.915Z,10.70
2023-04-13T08:44:20.653Z,10.66
2023-04-13T08:46:51.316Z,10.71
2023-04-13T08:49:25.426Z,10.70
2023-04-13T08:52:24.640Z,10.73
2023-04-13T08:54:54.486Z,10.79
2023-04-13T08:57:29.400Z,10.80
2023-04-13T08:59:57.487Z,10.78
2023-04-13T09:02:28.247Z,10.78
2023-04-13T09:05:06.038Z,10.80
2023-04-13T09:07:36.549Z,10.89
2023-04-13T09:10:09.445Z,10.94
2023-04-13T09:12:42.706Z,11.00
2023-04-13T09:15:14.669Z,11.38
2023-04-13T09:17:50.516Z,11.58
2023-04-13T09:20:23.032Z,11.70
2023-04-13T09:22:51.499Z,11.84
2023-04-13T09:25:25.900Z,11.46
2023-04-13T09:27:52.678Z,11.85
2023-04-13T09:30:23.518Z,11.97
2023-04-13T09:33:05.759Z,12.06
2023-04-13T09:35:36.074Z,12.08
2023-04-13T09:38:03.062Z,12.02
2023-04-13T09:40:29.539Z,12.17
2023-04-13T09:43:07.919Z,12.10
2023-04-13T09:45:39.327Z,12.17
2023-04-13T09:48:16.996Z,12.17
2023-04-13T09:50:44.109Z,12.30
2023-04-13T09:53:10.839Z,12.48
2023-04-13T09:55:38.480Z,12.72
2023-04-13T09:58:13.612Z,12.77
2023-04-13T10:00:42.029Z,13.04
2023-04-13T10:03:13.496Z,12.96
2023-04-13T10:05:58.023Z,12.92
2023-04-13T10:08:36.553Z,13.12
2023-04-13T10:11:08.082Z,13.09
2023-04-13T10:13:45.797Z,12.84
2023-04-13T10:16:42.880Z,12.79
2023-04-13T10:19:12.485Z,12.87
2023-04-13T10:21:42.717Z,12.88
2023-04-13T10:24:12.713Z,12.87
2023-04-13T10:26:41.344Z,12.90
2023-04-13T10:29:13.406Z,13.01
2023-04-13T10:31:47.922Z,13.18
2023-04-13T10:34:25.589Z,13.21
2023-04-13T10:36:55.188Z,12.93
2023-04-13T10:39:27.382Z,13.09
2023-04-13T10:42:03.444Z,12.99
2023-04-13T10:44:52.324Z,12.83
2023-04-13T10:47:21.026Z,12.93
2023-04-13T10:49:48.713Z,13.03
2023-04-13T10:52:16.207Z,13.04
2023-04-13T10:54:43.829Z,13.04
2023-04-13T10:57:11.502Z,13.23
2023-04-13T10:59:58.947Z,13.16
2023-04-13T11:02:31.394Z,13.08
2023-04-13T11:04:58.854Z,13.14
2023-04-13T11:07:28.664Z,13.13
2023-04-13T11:10:04.138Z,13.12
2023-04-13T11:12:30.722Z,13.23
2023-04-13T11:14:57.332Z,13.23
2023-04-13T11:17:23.937Z,13.15
2023-04-13T11:19:51.903Z,13.26
2023-04-13T11:22:22.557Z,13.23
2023-04-13T11:24:49.915Z,13.35
2023-04-13T11:27:17.046Z,13.29
2023-04-13T11:29:43.531Z,13.36
2023-04-13T11:32:18.596Z,13.34
2023-04-13T11:34:45.270Z,13.39
2023-04-13T11:37:11.689Z,13.17
2023-04-13T11:39:39.286Z,13.28
2023-04-13T11:42:06.956Z,13.38
2023-04-13T11:44:37.223Z,13.54
2023-04-13T11:47:04.394Z,13.84
2023-04-13T11:49:32.061Z,13.93
2023-04-13T11:52:02.767Z,13.96
2023-04-13T11:54:30.244Z,14.03
2023-04-13T11:56:57.519Z,13.88
2023-04-13T11:59:24.793Z,13.96
2023-04-13T12:02:00.093Z,13.98
2023-04-13T12:04:36.976Z,13.97
2023-04-13T12:07:10.635Z,13.96
2023-04-13T12:09:56.277Z,13.89
2023-04-13T12:15:13.787Z,13.87
2023-04-13T12:17:49.652Z,13.89
2023-04-13T12:20:16.916Z,13.94
2023-04-13T12:25:15.338Z,14.08
2023-04-13T12:27:42.371Z,14.05
2023-04-13T12:30:13.533Z,14.09
2023-04-13T12:32:44.426Z,14.27
2023-04-13T12:35:10.921Z,14.44
2023-04-13T12:37:43.586Z,14.50
2023-04-13T12:40:13.307Z,14.43
2023-04-13T12:42:42.641Z,14.45
2023-04-13T12:45:09.695Z,14.44
2023-04-13T12:47:37.059Z,14.59
2023-04-13T12:50:08.076Z,14.48
2023-04-13T12:52:35.451Z,14.50
2023-04-13T12:55:02.369Z,14.56
2023-04-13T12:57:29.674Z,14.77
2023-04-13T12:59:57.010Z,14.96
2023-04-13T13:02:24.443Z,15.28
2023-04-13T13:04:51.773Z,15.16
2023-04-13T13:07:19.114Z,15.16
2023-04-13T13:09:45.900Z,15.58
2023-04-13T13:12:12.299Z,15.86
2023-04-13T13:14:38.830Z,16.18
2023-04-13T13:17:05.286Z,16.35
2023-04-13T13:19:31.703Z,15.89
2023-04-13T13:21:59.842Z,16.09
2023-04-13T13:24:29.752Z,16.06
2023-04-13T13:29:33.306Z,15.85
2023-04-13T13:32:00.431Z,15.77
2023-04-13T13:34:39.065Z,15.75
2023-04-13T13:37:05.740Z,15.74
2023-04-13T13:39:32.325Z,15.81
2023-04-13T13:41:58.941Z,15.65
2023-04-13T13:44:25.427Z,15.62
2023-04-13T13:46:51.870Z,15.54
2023-04-13T13:49:20.576Z,15.49
2023-04-13T13:52:05.321Z,15.44
2023-04-13T13:54:39.444Z,15.26
2023-04-13T13:57:05.858Z,15.25
2023-04-13T13:59:32.298Z,15.03
2023-04-13T14:01:59.852Z,14.91
2023-04-13T14:04:26.475Z,14.93
2023-04-13T14:06:52.901Z,14.89
2023-04-13T14:09:19.310Z,14.85
2023-04-13T14:11:45.766Z,14.95
2023-04-13T14:14:21.032Z,14.88
2023-04-13T14:16:48.553Z,14.88
2023-04-13T14:19:14.985Z,14.80
2023-04-13T14:21:56.605Z,14.89
2023-04-13T14:24:25.226Z,14.95
2023-04-13T14:26:52.686Z,15.06
2023-04-13T14:29:19.095Z,15.15
2023-04-13T14:31:45.650Z,15.23
2023-04-13T14:34:12.182Z,15.23
2023-04-13T14:36:39.154Z,15.11
2023-04-13T14:39:06.197Z,14.96
2023-04-13T14:41:32.632Z,14.98
2023-04-13T14:43:59.053Z,14.92
2023-04-13T14:46:27.912Z,14.91
2023-04-13T14:48:54.336Z,14.86
2023-04-13T14:51:21.428Z,14.87
2023-04-13T14:53:47.826Z,14.97
2023-04-13T14:56:14.241Z,15.01
2023-04-13T14:58:43.206Z,14.97
2023-04-13T15:01:19.851Z,15.03
2023-04-13T15:03:46.911Z,14.97
2023-04-13T15:06:14.118Z,14.98
2023-04-13T15:08:55.898Z,14.86
2023-04-13T15:11:22.676Z,14.79
2023-04-13T15:13:49.241Z,14.90
2023-04-13T15:16:16.158Z,14.89
2023-04-13T15:18:42.639Z,14.97
2023-04-13T15:21:09.048Z,14.96
2023-04-13T15:23:36.452Z,14.95
2023-04-13T15:26:02.987Z,14.91
2023-04-13T15:28:29.438Z,14.91
2023-04-13T15:30:55.844Z,14.80
2023-04-13T15:33:22.256Z,14.93
2023-04-13T15:35:48.691Z,14.97
2023-04-13T15:38:15.091Z,14.98
2023-04-13T15:40:42.146Z,15.00
2023-04-13T15:43:08.575Z,15.02
2023-04-13T15:45:35.415Z,14.98
2023-04-13T15:48:02.734Z,14.96
2023-04-13T15:50:29.269Z,14.96
2023-04-13T15:52:57.037Z,14.90
2023-04-13T15:55:23.541Z,14.73
2023-04-13T15:57:50.679Z,14.77
2023-04-13T16:00:17.425Z,14.84
2023-04-13T16:02:44.059Z,14.78
2023-04-13T16:05:10.577Z,14.78
2023-04-13T16:07:36.991Z,14.76
2023-04-13T16:10:04.261Z,14.52
2023-04-13T16:12:34.721Z,14.72
2023-04-13T16:15:04.264Z,14.69
2023-04-13T16:17:31.725Z,14.63
2023-04-13T16:20:08.222Z,14.60
2023-04-13T16:22:37.624Z,14.49
2023-04-13T16:25:05.508Z,14.68
2023-04-13T16:27:32.461Z,14.66
2023-04-13T16:29:59.735Z,14.67
2023-04-13T16:32:26.286Z,14.64
2023-04-13T16:34:52.871Z,14.64
2023-04-13T16:37:19.281Z,14.69
2023-04-13T16:39:46.819Z,14.65
2023-04-13T16:42:13.899Z,14.64
2023-04-13T16:44:40.336Z,14.64
2023-04-13T16:47:06.742Z,14.66
2023-04-13T16:49:33.448Z,14.66
2023-04-13T16:52:00.203Z,14.69
2023-04-13T16:54:27.159Z,14.69
2023-04-13T16:56:53.678Z,14.73
2023-04-13T16:59:20.933Z,14.65
2023-04-13T17:01:47.549Z,14.58
2023-04-13T17:04:14.133Z,14.61
2023-04-13T17:06:41.022Z,14.60
2023-04-13T17:09:08.154Z,14.63
2023-04-13T17:11:34.594Z,14.68
2023-04-13T17:14:01.054Z,14.61
2023-04-13T17:16:29.426Z,14.55
2023-04-13T17:18:56.627Z,14.46
2023-04-13T17:21:23.141Z,14.53
2023-04-13T17:23:49.634Z,14.49
2023-04-13T17:26:16.295Z,14.43
2023-04-13T17:28:42.699Z,14.39
2023-04-13T17:31:09.142Z,14.42
2023-04-13T17:33:35.545Z,14.32
2023-04-13T17:36:01.947Z,14.38
2023-04-13T17:38:28.393Z,14.34
2023-04-13T17:40:54.810Z,14.19
2023-04-13T17:43:21.201Z,14.19
2023-04-13T17:45:47.673Z,14.19
2023-04-13T17:48:14.155Z,14.21
2023-04-13T17:50:40.564Z,14.20
2023-04-13T17:53:06.959Z,14.16
2023-04-13T17:55:36.630Z,14.04
2023-04-13T17:58:03.063Z,13.84
2023-04-13T18:00:29.445Z,13.61
2023-04-13T18:02:56.035Z,13.46
2023-04-13T18:05:22.624Z,13.34
2023-04-13T18:07:49.357Z,13.21
2023-04-13T18:10:15.746Z,13.09
2023-04-13T18:12:42.296Z,13.08
2023-04-13T18:15:09.387Z,13.02
2023-04-13T18:17:36.624Z,12.98
2023-04-13T18:20:03.353Z,12.77
2023-04-13T18:22:29.934Z,12.59
2023-04-13T18:24:56.328Z,12.58
2023-04-13T18:27:23.114Z,12.37
2023-04-13T18:29:49.510Z,12.39
2023-04-13T18:32:17.061Z,12.23
2023-04-13T18:34:44.130Z,12.03
2023-04-13T18:37:11.303Z,11.91
2023-04-13T18:39:38.326Z,11.80
2023-04-13T18:42:04.802Z,11.77
2023-04-13T18:44:31.215Z,11.74
2023-04-13T18:46:57.628Z,11.59
2023-04-13T18:49:24.063Z,11.53
2023-04-13T18:51:50.697Z,11.46
2023-04-13T18:54:17.149Z,11.47
2023-04-13T18:56:43.536Z,11.29
2023-04-13T18:59:12.825Z,11.24
2023-04-13T19:01:39.289Z,11.18
2023-04-13T19:04:06.134Z,11.14
2023-04-13T19:06:32.972Z,11.25
2023-04-13T19:08:59.388Z,11.10
2023-04-13T19:11:27.523Z,11.18
2023-04-13T19:13:54.191Z,11.19
2023-04-13T19:16:21.737Z,10.92
2023-04-13T19:18:48.215Z,10.76
2023-04-13T19:21:14.599Z,10.65
2023-04-13T19:23:40.987Z,10.60
2023-04-13T19:26:07.538Z,10.59
2023-04-13T19:28:33.933Z,10.65
2023-04-13T19:31:00.500Z,10.63
2023-04-13T19:33:26.901Z,10.53
2023-04-13T19:35:53.384Z,10.41
2023-04-13T19:38:19.912Z,10.36
2023-04-13T19:40:46.308Z,10.45
2023-04-13T19:43:12.751Z,10.32
2023-04-13T19:45:40.629Z,10.33
2023-04-13T19:48:07.149Z,10.32
2023-04-13T19:50:33.583Z,10.11
2023-04-13T19:53:00.022Z,10.10
2023-04-13T19:55:28.228Z,9.95
2023-04-13T19:57:54.621Z,9.79
2023-04-13T20:00:22.312Z,9.81
2023-04-13T20:02:50.833Z,9.78
2023-04-13T20:05:19.813Z,9.78
2023-04-13T20:07:46.234Z,9.69
2023-04-13T20:10:12.825Z,9.63
2023-04-13T20:12:39.580Z,9.66
2023-04-13T20:15:06.870Z,9.64
2023-04-13T20:17:33.380Z,9.52
2023-04-13T20:20:00.138Z,9.48
2023-04-13T20:22:26.562Z,9.45
2023-04-13T20:24:53.061Z,9.43
2023-04-13T20:27:21.471Z,9.46
2023-04-13T20:29:48.830Z,9.46
2023-04-13T20:32:15.843Z,9.35
2023-04-13T20:34:42.972Z,9.29
2023-04-13T20:37:14.380Z,9.31
2023-04-13T20:39:50.090Z,9.28
2023-04-13T20:42:20.436Z,9.31
2023-04-13T20:44:46.960Z,9.19
2023-04-13T20:47:13.796Z,9.09
2023-04-13T20:49:47.099Z,9.06
2023-04-13T20:52:14.042Z,9.11
2023-04-13T20:54:41.440Z,9.04
2023-04-13T20:57:09.156Z,8.96
2023-04-13T20:59:37.223Z,8.87
2023-04-13T21:02:04.645Z,8.75
2023-04-13T21:04:31.573Z,8.73
2023-04-13T21:06:57.977Z,8.66
2023-04-13T21:09:24.375Z,8.73
2023-04-13T21:11:50.796Z,8.76
2023-04-13T21:14:21.142Z,8.66
2023-04-13T21:16:47.615Z,8.60
2023-04-13T21:19:14.036Z,8.58
2023-04-13T21:21:40.649Z,8.56
2023-04-13T21:24:07.268Z,8.53
2023-04-13T21:26:33.656Z,8.48
2023-04-13T21:29:00.350Z,8.48
2023-04-13T21:31:26.753Z,8.38
2023-04-13T21:33:54.607Z,8.34
2023-04-13T21:38:50.331Z,8.31
2023-04-13T21:41:20.886Z,8.26
2023-04-13T21:43:47.973Z,8.02
2023-04-13T21:46:15.626Z,8.03
2023-04-13T21:48:42.237Z,7.99
2023-04-13T21:51:09.479Z,7.97
2023-04-13T21:53:36.518Z,7.93
2023-04-13T21:56:03.181Z,7.96
2023-04-13T21:58:38.348Z,7.96
2023-04-13T22:01:04.941Z,7.92
2023-04-13T22:03:31.623Z,7.87
2023-04-13T22:05:58.416Z,7.84
2023-04-13T22:08:24.816Z,7.81
2023-04-13T22:10:51.214Z,7.64
2023-04-13T22:13:17.663Z,7.56
2023-04-13T22:15:44.122Z,7.64
2023-04-13T22:18:11.044Z,7.61
2023-04-13T22:20:37.539Z,7.61
2023-04-13T22:23:03.952Z,7.58
2023-04-13T22:25:30.362Z,7.44
2023-04-13T22:27:59.570Z,7.45
2023-04-13T22:30:26.173Z,7.43
2023-04-13T22:32:52.616Z,7.44
2023-04-13T22:35:19.083Z,7.43
2023-04-13T22:37:45.483Z,7.50
2023-04-13T22:40:12.017Z,7.48
2023-04-13T22:42:38.427Z,7.51
2023-04-13T22:45:05.207Z,7.56
2023-04-13T22:47:31.701Z,7.52
2023-04-13T22:49:59.972Z,7.54
2023-04-13T22:52:26.793Z,7.43
2023-04-13T22:54:53.756Z,7.36
2023-04-13T22:57:20.714Z,7.34
2023-04-13T22:59:47.337Z,7.35
2023-04-13T23:02:13.752Z,7.35
2023-04-13T23:04:40.298Z,7.38
2023-04-13T23:07:06.837Z,7.29
2023-04-13T23:09:33.445Z,7.35
2023-04-13T23:11:59.844Z,7.36
2023-04-13T23:14:26.267Z,7.29
2023-04-13T23:16:52.661Z,7.31
2023-04-13T23:19:22.189Z,7.14
2023-04-13T23:21:48.591Z,7.20
2023-04-13T23:24:14.974Z,7.23
2023-04-13T23:26:41.382Z,7.10
2023-04-13T23:29:07.890Z,7.03
2023-04-13T23:31:34.315Z,7.02
2023-04-13T23:34:00.733Z,7.02
2023-04-13T23:36:27.518Z,7.04
2023-04-13T23:38:53.929Z,7.06
2023-04-13T23:41:21.100Z,7.09
2023-04-13T23:43:47.523Z,7.10
2023-04-13T23:46:17.169Z,7.10
2023-04-13T23:48:43.561Z,7.09
2023-04-13T23:51:09.986Z,7.02
2023-04-13T23:53:36.652Z,6.98
2023-04-13T23:56:03.072Z,6.96
2023-04-13T23:58:29.523Z,6.91
